Time;durP1;ratioP1;P1;durP2;ratioP2;P2;SDS_P1;SDS_P2;PMS_P1;PMS_P2;Temp;Humidity;BMP_temperature;BMP_pressure;BME280_temperature;BME280_humidity;BME280_pressure;Samples;Min_cycle;Max_cycle;Signal;HPM_P1;HPM_P2
2023/04/19 00:02:17;;;;;;;8.60;4.60;;;;;;;8.31;100.00;99615.63;107596;1277;22787;-70
2023/04/19 00:04:46;;;;;;;8.80;4.60;;;;;;;8.24;100.00;99616.64;110001;1270;23167;-71
2023/04/19 00:07:16;;;;;;;8.70;4.80;;;;;;;8.21;100.00;99622.03;108387;1276;23229;-70
2023/04/19 00:09:44;;;;;;;9.90;4.70;;;;;;;8.25;100.00;99622.01;107578;1278;22739;-70
2023/04/19 00:12:12;;;;;;;10.10;4.70;;;;;;;8.22;100.00;99620.35;107652;1275;24360;-70
2023/04/19 00:14:40;;;;;;;9.20;4.50;;;;;;;8.18;100.00;99615.29;107515;1273;23617;-70
2023/04/19 00:17:10;;;;;;;11.20;4.80;;;;;;;8.16;100.00;99614.94;107430;1273;22540;-70
2023/04/19 00:19:38;;;;;;;7.30;4.20;;;;;;;8.19;100.00;99606.55;110245;1276;23058;-71
2023/04/19 00:22:06;;;;;;;10.80;4.40;;;;;;;8.26;100.00;99601.70;110276;1277;22250;-71
2023/04/19 00:24:35;;;;;;;8.20;4.40;;;;;;;8.35;100.00;99597.05;110200;1277;23411;-71
2023/04/19 00:27:03;;;;;;;9.20;4.30;;;;;;;8.37;100.00;99589.80;110223;1276;23150;-71
2023/04/19 00:29:32;;;;;;;8.50;4.30;;;;;;;8.38;100.00;99583.90;110194;1275;22964;-71
2023/04/19 00:32:00;;;;;;;7.30;4.10;;;;;;;8.41;100.00;99583.27;110181;1279;22240;-70
2023/04/19 00:34:31;;;;;;;9.50;4.20;;;;;;;8.49;100.00;99571.71;110192;1273;22258;-70
2023/04/19 00:36:59;;;;;;;6.10;3.80;;;;;;;8.58;100.00;99567.75;110095;1278;22854;-70
2023/04/19 00:39:27;;;;;;;12.30;4.00;;;;;;;8.60;100.00;99564.61;110089;1278;22190;-71
2023/04/19 00:41:57;;;;;;;8.20;3.60;;;;;;;8.61;100.00;99560.21;110081;1273;22756;-71
2023/04/19 00:44:25;;;;;;;6.60;3.50;;;;;;;8.66;100.00;99554.38;110223;1276;22698;-71
2023/04/19 00:46:55;;;;;;;9.20;4.30;;;;;;;8.71;100.00;99551.05;110137;1276;22390;-71
2023/04/19 00:49:23;;;;;;;7.80;3.50;;;;;;;8.72;100.00;99547.58;110242;1270;23146;-70
2023/04/19 00:51:51;;;;;;;7.50;3.80;;;;;;;8.74;100.00;99545.91;109971;1278;22233;-71
2023/04/19 00:54:19;;;;;;;7.10;3.40;;;;;;;8.75;100.00;99539.61;110225;1276;23309;-71
2023/04/19 00:56:49;;;;;;;8.30;3.70;;;;;;;8.80;100.00;99539.74;110157;1271;22353;-71
2023/04/19 00:59:17;;;;;;;6.80;3.30;;;;;;;8.80;100.00;99538.16;109978;1278;22492;-71
2023/04/19 01:01:45;;;;;;;6.70;3.20;;;;;;;8.80;100.00;99534.69;110240;1278;22425;-71
2023/04/19 01:04:15;;;;;;;7.10;3.60;;;;;;;8.81;100.00;99533.77;110217;1276;22181;-71
2023/04/19 01:06:44;;;;;;;6.30;3.40;;;;;;;8.81;100.00;99533.89;110074;1278;22337;-71
2023/04/19 01:09:12;;;;;;;6.30;3.60;;;;;;;8.86;100.00;99526.89;110227;1278;22438;-71
2023/04/19 01:11:41;;;;;;;11.40;3.60;;;;;;;8.89;100.00;99525.13;110150;1278;22282;-71
2023/04/19 01:14:10;;;;;;;7.30;3.90;;;;;;;8.89;100.00;99519.42;110008;1278;22194;-71
2023/04/19 01:16:39;;;;;;;9.30;3.60;;;;;;;8.87;100.00;99517.94;110228;1272;22305;-71
2023/04/19 01:19:07;;;;;;;7.60;3.80;;;;;;;8.84;100.00;99518.91;110205;1272;22217;-71
2023/04/19 01:21:38;;;;;;;6.00;3.20;;;;;;;8.83;100.00;99513.05;110146;1276;23188;-71
2023/04/19 01:24:06;;;;;;;6.00;3.40;;;;;;;8.86;100.00;99511.27;110046;1273;22466;-71
2023/04/19 01:26:34;;;;;;;7.10;3.30;;;;;;;8.82;100.00;99507.56;110258;1278;22217;-71
2023/04/19 01:29:03;;;;;;;9.40;3.70;;;;;;;8.78;100.00;99506.77;110267;1278;22377;-71
2023/04/19 01:31:31;;;;;;;8.70;3.50;;;;;;;8.74;100.00;99507.38;110274;1278;22332;-71
2023/04/19 01:34:00;;;;;;;6.90;4.00;;;;;;;8.74;100.00;99505.73;110225;1273;23003;-71
2023/04/19 01:36:30;;;;;;;8.40;3.40;;;;;;;8.68;100.00;99504.35;110196;1278;22372;-71
2023/04/19 01:38:58;;;;;;;5.50;2.80;;;;;;;8.62;100.00;99502.10;110292;1277;23098;-70
2023/04/19 01:41:28;;;;;;;6.10;3.30;;;;;;;8.54;100.00;99500.27;110252;1278;22231;-71
2023/04/19 01:43:56;;;;;;;7.20;3.40;;;;;;;8.53;100.00;99504.77;110053;1278;23096;-70
2023/04/19 01:46:24;;;;;;;11.10;3.60;;;;;;;8.47;100.00;99497.73;110182;1277;22250;-70
2023/04/19 01:48:53;;;;;;;7.20;3.50;;;;;;;8.39;100.00;99494.18;110069;1278;23003;-70
2023/04/19 01:51:21;;;;;;;6.10;3.30;;;;;;;8.32;100.00;99493.48;110067;1270;22384;-71
2023/04/19 01:53:53;;;;;;;8.90;3.70;;;;;;;8.29;100.00;99489.77;110227;1276;22590;-71
2023/04/19 01:56:23;;;;;;;8.60;3.40;;;;;;;8.26;100.00;99487.08;110035;1278;22244;-71
2023/04/19 01:58:51;;;;;;;8.70;3.50;;;;;;;8.21;100.00;99486.79;110100;1278;22815;-71
2023/04/19 02:01:19;;;;;;;8.70;3.40;;;;;;;8.20;100.00;99485.52;110066;1278;23192;-71
2023/04/19 02:03:48;;;;;;;6.70;3.70;;;;;;;8.26;100.00;99480.85;109424;1270;23380;-70
2023/04/19 02:06:17;;;;;;;7.90;3.80;;;;;;;8.27;100.00;99481.08;107372;1254;25180;-70
2023/04/19 02:08:45;;;;;;;9.80;3.80;;;;;;;8.23;100.00;99479.04;107440;1277;23561;-70
2023/04/19 02:11:14;;;;;;;6.70;3.40;;;;;;;8.22;100.00;99476.05;107480;1278;23013;-70
2023/04/19 02:13:42;;;;;;;8.10;3.60;;;;;;;8.23;100.00;99473.29;107543;1276;25274;-70
2023/04/19 02:16:10;;;;;;;6.90;3.40;;;;;;;8.16;100.00;99471.77;107600;1271;22520;-70
2023/04/19 02:18:39;;;;;;;8.30;3.70;;;;;;;8.09;100.00;99479.86;107519;1272;25296;-70
2023/04/19 02:21:08;;;;;;;7.50;3.20;;;;;;;8.09;100.00;99478.61;107337;1278;24566;-70
2023/04/19 02:23:36;;;;;;;15.40;3.70;;;;;;;8.04;100.00;99482.77;107563;1271;22523;-70
2023/04/19 02:26:05;;;;;;;7.50;3.30;;;;;;;7.97;100.00;99482.00;107386;1278;22646;-70
2023/04/19 02:28:34;;;;;;;8.40;3.40;;;;;;;7.92;100.00;99483.88;108057;1273;23678;-70
2023/04/19 02:31:04;;;;;;;7.90;3.40;;;;;;;7.93;100.00;99483.02;107486;1276;23273;-70
2023/04/19 02:33:36;;;;;;;9.10;4.60;;;;;;;7.87;100.00;99480.21;107571;1276;24361;-70
2023/04/19 02:36:05;;;;;;;9.40;3.50;;;;;;;7.82;100.00;99484.40;107638;1278;27637;-70
2023/04/19 02:38:34;;;;;;;8.90;3.40;;;;;;;7.84;100.00;99487.73;107401;1278;23352;-70
2023/04/19 02:41:03;;;;;;;7.20;3.80;;;;;;;7.84;100.00;99487.23;107458;1264;22682;-70
2023/04/19 02:43:31;;;;;;;8.90;3.70;;;;;;;7.83;100.00;99491.23;107465;1276;23230;-71
2023/04/19 02:46:00;;;;;;;7.60;3.70;;;;;;;7.83;100.00;99495.95;107449;1278;23131;-70
2023/04/19 02:48:29;;;;;;;7.10;3.60;;;;;;;7.89;100.00;99492.48;107374;1278;26468;-71
2023/04/19 02:50:58;;;;;;;8.60;3.40;;;;;;;7.91;100.00;99492.11;107412;1270;22590;-71
2023/04/19 02:53:28;;;;;;;8.10;3.40;;;;;;;7.91;100.00;99494.92;107596;1278;22578;-70
2023/04/19 02:55:56;;;;;;;7.00;3.50;;;;;;;7.91;100.00;99494.16;107616;1278;25326;-70
2023/04/19 02:58:25;;;;;;;7.70;3.30;;;;;;;7.96;100.00;99494.36;107393;1278;25422;-70
2023/04/19 03:01:03;;;;;;;9.70;3.30;;;;;;;7.97;100.00;99494.11;107513;1273;22992;-71
2023/04/19 03:03:32;;;;;;;5.90;3.40;;;;;;;7.95;100.00;99488.98;107498;1273;24049;-70
2023/04/19 03:06:01;;;;;;;7.60;3.20;;;;;;;7.95;100.00;99489.31;107523;1278;22551;-70
2023/04/19 03:08:29;;;;;;;7.40;3.30;;;;;;;7.99;100.00;99492.38;107501;1278;23266;-70
2023/04/19 03:10:57;;;;;;;6.90;3.70;;;;;;;7.99;100.00;99489.73;107629;1271;22639;-71
2023/04/19 03:13:27;;;;;;;6.60;3.30;;;;;;;7.97;100.00;99494.91;108862;1278;22225;-71
2023/04/19 03:15:56;;;;;;;6.80;2.80;;;;;;;7.96;100.00;99492.73;110109;1272;22349;-71
2023/04/19 03:18:24;;;;;;;7.80;3.80;;;;;;;8.01;100.00;99492.13;110244;1278;22273;-71
2023/04/19 03:20:53;;;;;;;5.90;3.50;;;;;;;8.00;100.00;99489.41;110245;1272;22239;-71
2023/04/19 03:23:21;;;;;;;8.80;3.70;;;;;;;7.97;100.00;99486.02;110077;1257;22220;-71
2023/04/19 03:25:50;;;;;;;6.00;3.10;;;;;;;7.95;100.00;99480.10;110008;1277;23344;-71
2023/04/19 03:28:26;;;;;;;7.90;3.30;;;;;;;7.99;100.00;99477.91;110086;1278;22430;-71
2023/04/19 03:31:12;;;;;;;7.60;3.20;;;;;;;8.00;100.00;99476.98;110085;1278;22349;-71
2023/04/19 03:33:41;;;;;;;10.60;3.70;;;;;;;7.99;100.00;99473.78;110137;1278;22235;-72
2023/04/19 03:36:10;;;;;;;6.00;2.90;;;;;;;8.00;100.00;99472.77;110057;1279;23157;-71
2023/04/19 03:38:39;;;;;;;7.50;3.60;;;;;;;8.09;100.00;99466.20;110034;1278;22794;-71
2023/04/19 03:41:23;;;;;;;7.30;3.40;;;;;;;8.14;100.00;99465.20;110178;1278;22476;-71
2023/04/19 03:44:15;;;;;;;9.00;3.20;;;;;;;8.19;100.00;99464.69;110183;1276;23138;-71
2023/04/19 03:46:45;;;;;;;7.50;3.00;;;;;;;8.20;100.00;99464.27;110075;1272;22302;-71
2023/04/19 03:49:15;;;;;;;8.90;3.50;;;;;;;8.29;100.00;99465.52;110048;1276;22266;-71
2023/04/19 03:51:44;;;;;;;8.60;4.20;;;;;;;8.35;100.00;99464.88;110095;1273;22863;-71
2023/04/19 03:54:12;;;;;;;10.40;3.90;;;;;;;8.39;100.00;99465.85;110225;1278;22202;-71
2023/04/19 03:56:41;;;;;;;8.50;3.60;;;;;;;8.43;100.00;99468.97;110134;1275;22271;-71
2023/04/19 03:59:12;;;;;;;7.00;3.00;;;;;;;8.47;100.00;99469.97;110062;1277;23128;-72
2023/04/19 04:01:42;;;;;;;10.20;3.00;;;;;;;8.55;100.00;99468.96;110040;1277;22939;-71
2023/04/19 04:04:11;;;;;;;7.50;3.00;;;;;;;8.56;100.00;99467.46;110146;1272;22386;-71
2023/04/19 04:06:39;;;;;;;7.10;3.20;;;;;;;8.57;100.00;99470.77;110021;1278;22351;-71
2023/04/19 04:09:08;;;;;;;11.00;3.70;;;;;;;8.56;100.00;99470.66;110057;1278;22346;-71
2023/04/19 04:11:37;;;;;;;10.70;3.40;;;;;;;8.60;100.00;99465.46;110048;1278;23068;-72
2023/04/19 04:14:06;;;;;;;6.90;3.70;;;;;;;8.58;100.00;99466.98;110092;1278;22435;-72
2023/04/19 04:16:36;;;;;;;6.50;3.60;;;;;;;8.56;100.00;99472.08;110010;1278;22215;-72
2023/04/19 04:19:04;;;;;;;9.80;3.60;;;;;;;8.58;100.00;99472.56;110163;1278;22284;-72
2023/04/19 04:21:35;;;;;;;11.40;3.90;;;;;;;8.65;100.00;99467.45;110100;1278;23014;-71
2023/04/19 04:24:04;;;;;;;7.20;4.20;;;;;;;8.69;100.00;99460.11;110213;1276;22276;-71
2023/04/19 04:26:41;;;;;;;5.80;3.70;;;;;;;8.71;100.00;99461.81;110023;1278;22355;-71
2023/04/19 04:29:36;;;;;;;10.70;3.70;;;;;;;8.75;100.00;99465.03;110157;1271;22429;-71
2023/04/19 04:32:07;;;;;;;8.10;3.70;;;;;;;8.89;100.00;99469.48;109881;1270;22856;-72
2023/04/19 04:34:38;;;;;;;8.10;3.70;;;;;;;9.08;100.00;99469.69;109986;1275;22434;-72
2023/04/19 04:37:10;;;;;;;10.20;3.80;;;;;;;9.18;100.00;99468.67;110036;1278;22261;-72
2023/04/19 04:39:38;;;;;;;8.30;4.30;;;;;;;9.23;100.00;99470.14;110070;1277;23584;-72
2023/04/19 04:42:08;;;;;;;9.60;3.90;;;;;;;9.24;100.00;99465.04;107597;1277;24401;-71
2023/04/19 04:44:40;;;;;;;11.30;4.10;;;;;;;9.19;100.00;99466.02;107513;1272;25334;-70
2023/04/19 04:47:12;;;;;;;9.20;3.90;;;;;;;9.15;100.00;99463.83;107909;1270;22587;-70
2023/04/19 04:49:47;;;;;;;8.00;3.90;;;;;;;9.19;100.00;99463.79;107726;1276;24189;-71
2023/04/19 04:52:17;;;;;;;9.10;4.70;;;;;;;9.18;100.00;99465.35;107698;1270;22883;-71
2023/04/19 04:54:53;;;;;;;9.40;4.40;;;;;;;9.18;100.00;99461.23;107305;1270;22537;-70
2023/04/19 04:57:26;;;;;;;8.90;4.40;;;;;;;9.20;100.00;99464.11;107332;1271;23350;-71
2023/04/19 04:59:55;;;;;;;9.70;4.40;;;;;;;9.29;100.00;99467.65;107276;1278;22637;-69
2023/04/19 05:02:25;;;;;;;8.70;4.10;;;;;;;9.39;100.00;99467.13;107368;1271;22544;-69
2023/04/19 05:04:53;;;;;;;8.40;4.40;;;;;;;9.46;100.00;99472.08;107452;1270;23278;-69
2023/04/19 05:07:22;;;;;;;9.60;4.30;;;;;;;9.56;100.00;99473.29;107375;1276;22533;-69
2023/04/19 05:09:51;;;;;;;8.60;4.40;;;;;;;9.63;100.00;99472.69;107941;1274;25472;-70
2023/04/19 05:12:23;;;;;;;8.40;4.40;;;;;;;9.74;100.00;99470.23;107681;1276;23287;-71
2023/04/19 05:14:52;;;;;;;8.40;4.50;;;;;;;9.89;100.00;99470.28;107485;1276;22615;-72
2023/04/19 05:17:20;;;;;;;14.30;5.00;;;;;;;10.03;100.00;99473.85;110136;1278;22525;-70
2023/04/19 05:19:49;;;;;;;9.20;5.10;;;;;;;10.19;100.00;99474.29;110023;1278;22461;-70
2023/04/19 05:22:18;;;;;;;9.90;5.30;;;;;;;10.40;100.00;99471.35;110001;1273;22221;-71
2023/04/19 05:24:48;;;;;;;9.00;5.10;;;;;;;10.58;100.00;99471.95;110070;1278;22399;-71
2023/04/19 05:27:17;;;;;;;10.40;5.10;;;;;;;10.79;100.00;99468.85;110097;1278;23024;-71
2023/04/19 05:29:45;;;;;;;11.40;5.30;;;;;;;11.04;100.00;99471.25;110195;1278;22291;-71
2023/04/19 05:32:15;;;;;;;11.20;4.90;;;;;;;11.35;100.00;99473.92;110039;1278;23211;-71
2023/04/19 05:34:49;;;;;;;9.00;4.60;;;;;;;11.73;100.00;99468.59;110059;1274;23120;-71
2023/04/19 05:37:18;;;;;;;12.40;4.30;;;;;;;12.11;100.00;99465.41;110089;1276;22693;-71
2023/04/19 05:39:46;;;;;;;10.70;4.30;;;;;;;12.44;100.00;99451.67;109996;1278;22515;-71
2023/04/19 05:42:14;;;;;;;9.90;4.30;;;;;;;12.69;100.00;99445.98;108689;1278;23330;-70
2023/04/19 05:44:43;;;;;;;10.10;4.90;;;;;;;12.90;100.00;99436.45;107533;1270;25325;-70
2023/04/19 05:47:12;;;;;;;10.80;5.90;;;;;;;13.08;100.00;99433.81;107322;1278;23236;-70
2023/04/19 05:50:06;;;;;;;11.50;5.80;;;;;;;13.27;100.00;99431.64;107077;1278;22640;-70
2023/04/19 05:52:40;;;;;;;11.00;4.80;;;;;;;13.37;100.00;99430.72;107536;1278;23910;-71
2023/04/19 05:55:09;;;;;;;11.20;5.50;;;;;;;13.46;100.00;99426.77;107421;1271;22649;-70
2023/04/19 05:57:42;;;;;;;9.10;4.30;;;;;;;13.51;100.00;99428.38;107233;1273;23258;-71
2023/04/19 06:00:10;;;;;;;10.30;4.80;;;;;;;13.53;100.00;99429.16;107046;1278;25406;-70
2023/04/19 06:02:45;;;;;;;12.50;4.70;;;;;;;13.55;100.00;99425.02;107256;1273;23906;-69
2023/04/19 06:05:14;;;;;;;9.40;4.10;;;;;;;13.62;100.00;99426.98;107100;1272;25242;-69
2023/04/19 06:07:43;;;;;;;8.70;4.50;;;;;;;13.70;100.00;99426.77;107252;1278;22692;-68
2023/04/19 06:10:22;;;;;;;13.30;5.70;;;;;;;13.72;100.00;99423.98;107243;1273;23256;-68
2023/04/19 06:12:51;;;;;;;12.90;5.50;;;;;;;13.71;100.00;99421.46;107393;1270;26195;-68
2023/04/19 06:15:20;;;;;;;13.20;5.90;;;;;;;13.84;100.00;99426.34;107392;1278;24274;-69
2023/04/19 06:17:48;;;;;;;11.30;5.30;;;;;;;14.00;100.00;99427.14;107324;1270;23127;-69
2023/04/19 06:20:16;;;;;;;8.60;4.50;;;;;;;14.10;100.00;99423.56;107346;1273;24074;-68
2023/04/19 06:22:45;;;;;;;12.30;4.60;;;;;;;14.21;100.00;99419.67;107340;1277;22573;-69
2023/04/19 06:25:13;;;;;;;9.40;4.00;;;;;;;14.31;100.00;99417.67;107402;1270;25151;-69
2023/04/19 06:27:42;;;;;;;8.60;4.10;;;;;;;14.35;100.00;99417.17;107406;1276;25231;-69
2023/04/19 06:30:10;;;;;;;12.90;4.70;;;;;;;14.36;100.00;99417.16;107392;1270;22543;-70
2023/04/19 06:32:38;;;;;;;10.70;4.00;;;;;;;14.43;100.00;99423.17;107318;1275;23912;-69
2023/04/19 06:35:07;;;;;;;9.30;4.30;;;;;;;14.47;100.00;99421.83;107122;1278;24242;-70
2023/04/19 06:37:35;;;;;;;8.60;4.30;;;;;;;14.46;100.00;99418.89;107242;1277;22483;-70
2023/04/19 06:40:05;;;;;;;9.90;4.70;;;;;;;14.50;100.00;99421.55;107498;1277;22573;-70
2023/04/19 06:42:34;;;;;;;11.70;5.20;;;;;;;14.48;100.00;99420.20;110227;1279;22991;-70
2023/04/19 06:45:03;;;;;;;18.30;6.30;;;;;;;14.38;100.00;99419.38;110162;1278;22464;-70
2023/04/19 06:47:31;;;;;;;25.70;9.30;;;;;;;14.41;100.00;99421.50;110178;1277;22273;-70
2023/04/19 06:50:02;;;;;;;22.30;9.30;;;;;;;14.50;100.00;99418.13;110020;1277;22505;-70
2023/04/19 06:52:31;;;;;;;18.40;8.40;;;;;;;14.65;100.00;99414.49;110141;1277;22758;-69
2023/04/19 06:54:59;;;;;;;20.90;8.00;;;;;;;14.73;100.00;99411.61;110162;1272;22287;-69
2023/04/19 06:57:28;;;;;;;18.20;7.70;;;;;;;14.81;100.00;99405.27;110163;1278;22270;-70
2023/04/19 06:59:57;;;;;;;15.40;6.10;;;;;;;14.97;100.00;99410.89;110144;1270;22472;-69
2023/04/19 07:02:25;;;;;;;16.90;6.50;;;;;;;15.16;100.00;99413.35;110187;1278;22201;-69
2023/04/19 07:04:54;;;;;;;15.90;6.00;;;;;;;15.39;100.00;99413.70;110195;1272;22842;-70
2023/04/19 07:07:22;;;;;;;14.90;5.70;;;;;;;15.60;100.00;99407.47;110252;1278;23071;-69
2023/04/19 07:09:51;;;;;;;16.60;5.20;;;;;;;15.59;100.00;99403.14;110208;1278;23097;-70
2023/04/19 07:12:19;;;;;;;9.90;4.80;;;;;;;15.66;100.00;99405.92;110190;1277;22277;-72
2023/04/19 07:14:47;;;;;;;14.20;4.80;;;;;;;15.72;100.00;99403.90;110192;1278;22335;-72
2023/04/19 07:17:17;;;;;;;8.60;4.20;;;;;;;15.75;100.00;99404.26;110190;1273;22256;-70
2023/04/19 07:19:47;;;;;;;15.60;4.20;;;;;;;15.69;100.00;99404.75;109165;1270;22597;-70
2023/04/19 07:22:15;;;;;;;14.10;4.10;;;;;;;15.81;100.00;99405.81;107499;1270;25548;-70
2023/04/19 07:24:44;;;;;;;11.30;4.00;;;;;;;15.89;100.00;99405.09;107587;1273;26721;-72
2023/04/19 07:27:13;;;;;;;17.80;4.40;;;;;;;16.04;100.00;99416.31;107430;1277;25600;-71
2023/04/19 07:29:41;;;;;;;13.10;4.30;;;;;;;16.19;100.00;99419.35;108323;1270;23199;-71
2023/04/19 07:32:12;;;;;;;8.50;3.50;;;;;;;16.27;100.00;99414.78;107332;1277;26535;-71
2023/04/19 07:34:42;;;;;;;10.00;3.70;;;;;;;16.35;100.00;99409.45;107490;1278;23969;-71
2023/04/19 07:37:11;;;;;;;11.00;4.20;;;;;;;16.45;100.00;99401.04;107442;1278;25462;-71
2023/04/19 07:39:39;;;;;;;19.40;4.40;;;;;;;16.57;100.00;99399.56;107710;1275;22547;-72
2023/04/19 07:42:07;;;;;;;16.50;4.00;;;;;;;16.69;100.00;99401.63;107727;1270;23376;-71
2023/04/19 07:44:36;;;;;;;14.90;4.40;;;;;;;16.73;100.00;99398.98;107692;1277;22558;-71
2023/04/19 07:47:07;;;;;;;14.80;3.60;;;;;;;16.80;100.00;99396.80;107693;1278;23300;-71
2023/04/19 07:49:37;;;;;;;15.80;3.60;;;;;;;16.83;100.00;99399.07;107900;1276;23387;-71
2023/04/19 07:52:08;;;;;;;15.00;3.80;;;;;;;16.85;100.00;99396.64;107988;1275;22643;-71
2023/04/19 07:54:38;;;;;;;12.40;4.00;;;;;;;16.88;100.00;99388.95;107944;1274;22511;-71
2023/04/19 07:57:06;;;;;;;14.20;3.80;;;;;;;16.95;100.00;99388.95;107867;1275;26580;-71
2023/04/19 07:59:35;;;;;;;14.60;3.90;;;;;;;17.04;100.00;99382.54;110358;1275;22870;-72
2023/04/19 08:02:03;;;;;;;20.80;3.50;;;;;;;17.10;100.00;99382.88;110428;1275;22328;-72
2023/04/19 08:04:31;;;;;;;11.00;3.30;;;;;;;17.08;100.00;99383.57;110413;1275;22787;-71
2023/04/19 08:07:01;;;;;;;11.80;3.30;;;;;;;17.06;100.00;99381.54;110414;1275;22834;-71
2023/04/19 08:09:29;;;;;;;15.30;4.40;;;;;;;17.05;100.00;99380.95;110466;1275;22445;-72
2023/04/19 08:11:57;;;;;;;11.90;3.30;;;;;;;17.18;100.00;99380.20;110374;1275;22906;-68
2023/04/19 08:14:26;;;;;;;12.80;3.90;;;;;;;17.32;100.00;99381.68;110442;1275;22517;-74
2023/04/19 08:17:07;;;;;;;10.30;3.50;;;;;;;17.36;100.00;99375.66;110403;1275;22510;-70
2023/04/19 08:19:51;;;;;;;15.60;3.50;;;;;;;17.30;100.00;99381.76;107764;1275;25315;-72
2023/04/19 08:22:20;;;;;;;15.20;3.80;;;;;;;17.17;100.00;99379.33;107982;1273;23151;-71
2023/04/19 08:24:48;;;;;;;12.10;3.30;;;;;;;17.08;100.00;99382.23;107891;1275;22578;-72
2023/04/19 08:27:17;;;;;;;10.60;3.50;;;;;;;17.12;100.00;99373.23;107717;1275;25312;-71
2023/04/19 08:29:46;;;;;;;17.60;4.20;;;;;;;17.19;100.00;99370.27;107754;1275;22751;-72
2023/04/19 08:32:14;;;;;;;16.30;4.00;;;;;;;17.33;100.00;99367.58;107790;1275;22724;-72
2023/04/19 08:34:42;;;;;;;13.60;3.80;;;;;;;17.31;100.00;99364.12;107852;1275;22614;-72
2023/04/19 08:37:11;;;;;;;13.70;3.80;;;;;;;17.44;100.00;99362.80;107778;1275;22674;-71
2023/04/19 08:39:40;;;;;;;12.90;3.30;;;;;;;17.60;100.00;99359.14;107805;1275;25399;-71
2023/04/19 08:42:08;;;;;;;13.90;3.80;;;;;;;17.67;100.00;99354.41;110325;1275;22197;-72
2023/04/19 08:44:56;;;;;;;10.60;3.40;;;;;;;17.80;100.00;99346.25;110408;1275;22267;-72
2023/04/19 08:47:45;;;;;;;12.70;3.10;;;;;;;18.00;100.00;99351.59;110365;1275;23416;-72
2023/04/19 08:50:26;;;;;;;12.30;3.30;;;;;;;18.14;100.00;99342.23;110331;1275;22251;-71
2023/04/19 08:53:02;;;;;;;14.60;2.90;;;;;;;18.03;100.00;99345.33;110337;1275;22439;-71
2023/04/19 08:55:34;;;;;;;13.90;3.60;;;;;;;17.91;100.00;99344.37;110300;1275;23082;-71
2023/04/19 08:58:03;;;;;;;17.60;3.80;;;;;;;17.82;100.00;99348.14;110348;1275;22354;-72
2023/04/19 09:00:40;;;;;;;20.20;7.30;;;;;;;17.80;100.00;99349.94;110230;1275;22609;-71
2023/04/19 09:03:08;;;;;;;17.10;4.20;;;;;;;17.81;100.00;99347.17;110438;1252;22878;-72
2023/04/19 09:05:37;;;;;;;18.10;4.50;;;;;;;17.83;100.00;99348.52;110422;1275;22216;-71
2023/04/19 09:08:23;;;;;;;25.70;10.20;;;;;;;17.77;100.00;99351.14;110419;1275;22337;-72
2023/04/19 09:11:01;;;;;;;52.20;24.60;;;;;;;17.73;100.00;99348.02;110417;1275;22215;-71
2023/04/19 09:13:32;;;;;;;13.50;3.90;;;;;;;17.68;100.00;99347.13;110421;1275;24059;-71
2023/04/19 09:16:01;;;;;;;15.80;3.30;;;;;;;17.74;100.00;99350.78;110394;1275;22468;-71
2023/04/19 09:18:29;;;;;;;17.20;4.50;;;;;;;17.80;100.00;99350.98;110405;1275;22214;-71
2023/04/19 09:21:01;;;;;;;12.30;3.50;;;;;;;17.73;100.00;99352.71;110454;1275;23380;-71
2023/04/19 09:23:29;;;;;;;10.30;3.00;;;;;;;17.61;100.00;99348.95;110423;1275;22213;-71
2023/04/19 09:25:59;;;;;;;14.50;3.10;;;;;;;17.47;100.00;99356.20;110419;1275;22269;-71
2023/04/19 09:29:09;;;;;;;14.70;3.20;;;;;;;17.34;100.00;99356.02;110422;1270;22396;-71
2023/04/19 09:31:40;;;;;;;15.20;3.70;;;;;;;17.24;100.00;99354.88;110477;1275;22390;-71
2023/04/19 09:34:20;;;;;;;21.90;3.90;;;;;;;17.25;100.00;99348.19;110303;1275;23051;-71
2023/04/19 09:36:48;;;;;;;15.70;3.70;;;;;;;17.23;100.00;99350.02;110417;1275;22284;-72
2023/04/19 09:39:31;;;;;;;14.00;4.20;;;;;;;17.21;100.00;99350.39;110416;1273;22405;-70
2023/04/19 09:42:00;;;;;;;15.50;3.30;;;;;;;17.11;100.00;99347.60;110419;1275;23279;-70
2023/04/19 09:44:29;;;;;;;21.70;4.30;;;;;;;16.98;100.00;99347.30;110434;1275;22214;-70
2023/04/19 09:47:00;;;;;;;20.70;4.30;;;;;;;16.87;100.00;99344.84;110441;1275;23027;-71
2023/04/19 09:49:29;;;;;;;15.00;3.80;;;;;;;16.77;100.00;99349.07;110205;1272;22206;-71
2023/04/19 09:52:15;;;;;;;19.00;4.50;;;;;;;16.64;100.00;99339.19;110442;1275;22351;-71
2023/04/19 09:54:43;;;;;;;20.20;4.10;;;;;;;16.57;100.00;99351.73;110428;1274;22281;-71
2023/04/19 09:57:11;;;;;;;26.00;4.00;;;;;;;16.61;100.00;99347.10;110341;1276;22687;-71
2023/04/19 09:59:40;;;;;;;22.40;3.80;;;;;;;16.66;100.00;99341.88;110353;1275;23058;-70
2023/04/19 10:04:48;;;;;;;19.00;4.70;;;;;;;16.64;100.00;99342.16;103737;1306;545082;-68
2023/04/19 10:07:36;;;;;;;23.90;3.60;;;;;;;16.57;100.00;99339.69;105857;1283;25444;-69
2023/04/19 10:10:05;;;;;;;22.00;3.20;;;;;;;16.62;100.00;99338.70;105830;1288;25416;-69
2023/04/19 10:12:48;;;;;;;18.90;3.50;;;;;;;16.65;100.00;99337.90;109543;1288;22315;-69
2023/04/19 10:15:20;;;;;;;31.90;4.00;;;;;;;16.68;100.00;99335.13;109423;1288;22729;-69
2023/04/19 10:17:49;;;;;;;20.20;3.00;;;;;;;16.80;100.00;99336.93;109366;1286;282398;-69
2023/04/19 10:20:28;;;;;;;26.80;4.00;;;;;;;16.95;100.00;99329.74;109518;1282;22354;-69
2023/04/19 10:22:56;;;;;;;22.80;3.60;;;;;;;17.14;100.00;99329.86;109569;1282;22305;-69
2023/04/19 10:25:31;;;;;;;26.00;3.20;;;;;;;17.29;100.00;99332.65;109675;1287;22298;-70
2023/04/19 10:27:59;;;;;;;22.40;3.30;;;;;;;17.42;100.00;99330.73;109699;1287;22431;-69
2023/04/19 10:30:28;;;;;;;26.70;4.00;;;;;;;17.42;100.00;99336.23;110026;1280;22477;-69
2023/04/19 10:32:58;;;;;;;29.70;4.10;;;;;;;17.37;100.00;99331.48;110011;1280;22507;-69
2023/04/19 10:35:28;;;;;;;24.30;3.70;;;;;;;17.32;100.00;99334.08;109989;1273;22262;-69
2023/04/19 10:38:07;;;;;;;25.70;4.50;;;;;;;17.27;100.00;99332.52;110079;1276;23341;-69
2023/04/19 10:40:54;;;;;;;22.70;3.30;;;;;;;17.27;100.00;99335.19;110063;1280;23182;-69
2023/04/19 10:43:23;;;;;;;;;;;;;;;17.33;100.00;99332.56;110408;1275;22471;-69
2023/04/19 10:45:52;;;;;;;24.50;3.10;;;;;;;17.40;100.00;99333.38;110424;1275;22487;-69
2023/04/19 10:48:31;;;;;;;27.10;4.30;;;;;;;17.40;100.00;99334.81;110402;1275;22408;-69
2023/04/19 10:51:17;;;;;;;23.70;3.80;;;;;;;17.40;100.00;99335.35;110416;1272;22197;-68
2023/04/19 10:53:48;;;;;;;28.80;4.00;;;;;;;17.37;100.00;99333.66;110397;1275;22231;-68
2023/04/19 10:56:21;;;;;;;26.20;3.90;;;;;;;17.35;100.00;99336.17;110374;1275;22449;-69
2023/04/19 11:01:39;;;;;;;22.10;3.50;;;;;;;17.40;100.00;99336.02;110376;1275;22271;-69
2023/04/19 11:04:11;;;;;;;27.50;5.20;;;;;;;17.35;100.00;99339.95;110410;1275;22380;-69
2023/04/19 11:06:50;;;;;;;31.10;4.70;;;;;;;17.44;100.00;99342.98;110384;1275;22252;-69
2023/04/19 11:09:25;;;;;;;20.20;4.50;;;;;;;17.63;100.00;99341.95;110390;1272;22397;-69
2023/04/19 11:12:00;;;;;;;33.70;4.30;;;;;;;17.77;100.00;99343.92;110399;1276;22177;-69
2023/04/19 11:14:33;;;;;;;30.40;4.10;;;;;;;17.86;100.00;99345.88;110407;1276;23201;-69
2023/04/19 11:17:24;;;;;;;30.30;4.70;;;;;;;17.88;100.00;99349.38;110204;1275;22275;-69
2023/04/19 11:20:06;;;;;;;30.80;4.60;;;;;;;17.93;100.00;99345.85;110260;1275;22828;-69
2023/04/19 11:22:41;;;;;;;26.80;4.60;;;;;;;17.95;100.00;99349.02;110384;1276;22266;-69
2023/04/19 11:25:18;;;;;;;34.90;4.40;;;;;;;17.91;100.00;99353.73;110240;1276;22407;-69
2023/04/19 11:27:52;;;;;;;32.00;4.60;;;;;;;17.86;100.00;99351.25;110431;1275;22832;-69
2023/04/19 11:30:21;;;;;;;31.90;4.30;;;;;;;17.79;100.00;99354.32;110368;1275;22232;-69
2023/04/19 11:32:54;;;;;;;37.90;4.90;;;;;;;17.68;100.00;99356.68;110414;1276;22469;-69
2023/04/19 11:35:24;;;;;;;28.40;4.60;;;;;;;17.52;100.00;99360.73;110397;1276;23549;-69
2023/04/19 11:37:53;;;;;;;32.10;4.80;;;;;;;17.36;100.00;99361.59;110263;1275;22546;-69
2023/04/19 11:40:22;;;;;;;30.80;4.60;;;;;;;17.22;100.00;99360.79;110388;1275;22227;-69